Time;durP1;ratioP1;P1;durP2;ratioP2;P2;SDS_P1;SDS_P2;PMS_P1;PMS_P2;Temp;Humidity;BMP_temperature;BMP_pressure;BME280_temperature;BME280_humidity;BME280_pressure;Samples;Min_cycle;Max_cycle;Signal;HPM_P1;HPM_P2
2022/04/13 00:00:28;;;;;;;4.80;3.22;;;10.90;61.90;;;;;;5114830;28;20280;-64
2022/04/13 00:02:56;;;;;;;6.20;3.20;;;10.80;62.00;;;;;;5108724;28;20185;-64
2022/04/13 00:05:23;;;;;;;4.68;3.00;;;10.80;62.30;;;;;;5103082;28;20188;-64
2022/04/13 00:07:52;;;;;;;4.60;3.22;;;10.70;62.00;;;;;;5110133;28;20242;-64
2022/04/13 00:10:19;;;;;;;6.45;3.55;;;10.70;61.70;;;;;;5094578;28;20196;-63
2022/04/13 00:12:46;;;;;;;4.60;3.70;;;10.70;61.70;;;;;;5097135;28;20232;-63
2022/04/13 00:15:13;;;;;;;5.55;4.00;;;10.60;62.60;;;;;;5114850;28;20196;-64
2022/04/13 00:17:40;;;;;;;6.97;3.90;;;10.60;62.50;;;;;;5102307;28;20695;-64
2022/04/13 00:20:09;;;;;;;5.72;4.10;;;10.50;61.80;;;;;;5094241;28;20199;-64
2022/04/13 00:22:36;;;;;;;5.65;3.22;;;10.50;62.10;;;;;;5104482;28;20200;-63
2022/04/13 00:25:05;;;;;;;6.30;3.83;;;10.40;62.10;;;;;;5114842;28;20234;-64
2022/04/13 00:27:40;;;;;;;9.80;5.45;;;10.40;61.90;;;;;;5104433;28;20181;-64
2022/04/13 00:30:10;;;;;;;16.92;4.70;;;10.40;62.30;;;;;;5107266;28;20191;-64
2022/04/13 00:32:39;;;;;;;4.53;2.70;;;10.40;62.80;;;;;;5104659;28;20213;-64
2022/04/13 00:35:10;;;;;;;6.38;3.53;;;10.20;59.60;;;;;;5094025;28;20253;-63
2022/04/13 00:37:39;;;;;;;4.40;3.72;;;9.90;59.40;;;;;;5102670;28;20219;-63
2022/04/13 00:40:10;;;;;;;6.38;3.53;;;9.70;60.70;;;;;;5113589;28;20197;-64
2022/04/13 00:42:37;;;;;;;16.42;3.65;;;9.50;63.00;;;;;;5096264;28;20196;-64
2022/04/13 00:45:05;;;;;;;5.82;3.55;;;9.40;65.20;;;;;;5093405;28;20675;-64
2022/04/13 00:47:40;;;;;;;4.88;4.00;;;9.40;66.20;;;;;;5109347;28;20188;-64
2022/04/13 00:50:09;;;;;;;5.00;4.32;;;9.40;66.70;;;;;;5114017;28;20192;-63
2022/04/13 00:52:41;;;;;;;4.43;3.58;;;9.40;67.30;;;;;;5097391;27;20303;-69
2022/04/13 00:55:14;;;;;;;5.13;3.70;;;9.40;67.90;;;;;;5073645;28;20193;-63
2022/04/13 00:57:42;;;;;;;6.47;4.07;;;9.50;68.60;;;;;;5105731;28;20199;-63
2022/04/13 01:00:12;;;;;;;8.70;4.20;;;9.50;68.40;;;;;;5113794;28;20192;-63
2022/04/13 01:02:42;;;;;;;4.30;3.75;;;9.60;68.60;;;;;;5097849;28;20181;-63
2022/04/13 01:05:10;;;;;;;9.73;4.22;;;9.60;68.60;;;;;;5096552;28;20548;-64
2022/04/13 01:07:37;;;;;;;7.97;4.45;;;9.60;68.30;;;;;;5072824;28;20660;-63
2022/04/13 01:10:06;;;;;;;6.00;4.90;;;9.60;67.60;;;;;;5077978;28;20231;-64
2022/04/13 01:12:35;;;;;;;7.82;4.00;;;9.70;68.60;;;;;;5112536;28;20281;-64
2022/04/13 01:15:06;;;;;;;9.50;3.95;;;9.70;68.10;;;;;;5111151;28;20196;-64
2022/04/13 01:17:34;;;;;;;6.53;4.35;;;9.70;67.30;;;;;;5099448;28;20239;-64
2022/04/13 01:20:05;;;;;;;5.35;3.72;;;9.60;67.00;;;;;;5111994;28;20283;-64
2022/04/13 01:22:37;;;;;;;6.47;4.45;;;9.60;66.50;;;;;;5092956;28;20651;-64
2022/04/13 01:25:05;;;;;;;5.97;4.47;;;9.60;66.30;;;;;;5093728;28;20220;-64
2022/04/13 01:27:33;;;;;;;6.28;4.35;;;9.60;66.50;;;;;;5113296;28;20188;-64
2022/04/13 01:30:00;;;;;;;6.53;4.30;;;9.60;66.40;;;;;;5102368;28;20547;-64
2022/04/13 01:32:28;;;;;;;6.15;4.50;;;9.60;66.70;;;;;;5092881;28;20285;-64
2022/04/13 01:35:02;;;;;;;5.65;4.43;;;9.50;66.20;;;;;;5101128;28;20188;-64
2022/04/13 01:37:30;;;;;;;6.55;4.05;;;9.40;66.60;;;;;;5113001;28;20195;-65
2022/04/13 01:39:59;;;;;;;7.82;5.20;;;9.30;67.90;;;;;;5093552;28;20254;-64
2022/04/13 01:42:29;;;;;;;11.48;4.00;;;9.20;69.10;;;;;;5107194;28;20184;-64
2022/04/13 01:45:19;;;;;;;6.22;4.05;;;9.20;69.40;;;;;;5113230;28;20612;-63
2022/04/13 01:47:49;;;;;;;5.53;4.72;;;9.20;69.30;;;;;;5095750;28;20189;-64
2022/04/13 01:50:17;;;;;;;6.93;4.00;;;9.10;70.20;;;;;;5092522;28;20287;-63
2022/04/13 01:52:44;;;;;;;6.22;4.35;;;9.10;69.90;;;;;;5106471;28;20257;-64
2022/04/13 01:55:14;;;;;;;6.40;4.35;;;9.00;71.40;;;;;;5092677;28;20280;-64
2022/04/13 01:57:42;;;;;;;7.72;5.90;;;8.90;72.20;;;;;;5107378;28;20601;-64
2022/04/13 02:00:14;;;;;;;6.35;4.25;;;9.00;72.40;;;;;;5112926;28;20191;-64
2022/04/13 02:02:41;;;;;;;9.18;4.47;;;8.90;71.90;;;;;;5098103;28;20329;-64
2022/04/13 02:05:10;;;;;;;6.13;4.55;;;9.00;72.30;;;;;;5101191;28;20207;-64
2022/04/13 02:07:38;;;;;;;5.32;3.85;;;9.00;71.80;;;;;;5112757;28;20199;-64
2022/04/13 02:10:09;;;;;;;7.28;4.60;;;9.10;71.90;;;;;;5103876;28;20276;-64
2022/04/13 02:12:41;;;;;;;5.47;4.32;;;9.10;71.70;;;;;;5104556;28;20713;-64
2022/04/13 02:15:10;;;;;;;5.00;3.88;;;9.10;71.40;;;;;;5110816;28;20231;-64
2022/04/13 02:17:38;;;;;;;9.20;4.85;;;9.20;70.90;;;;;;5112661;28;20239;-64
2022/04/13 02:20:07;;;;;;;6.93;4.40;;;9.10;70.10;;;;;;5098269;28;20189;-64
2022/04/13 02:22:35;;;;;;;6.85;4.28;;;9.10;69.40;;;;;;5099763;28;20192;-64
2022/04/13 02:25:07;;;;;;;5.38;3.97;;;9.00;69.10;;;;;;5112775;28;20184;-63
2022/04/13 02:27:34;;;;;;;5.65;4.20;;;9.00;69.60;;;;;;5104431;28;20280;-64
2022/04/13 02:30:04;;;;;;;7.57;4.40;;;9.00;69.90;;;;;;5105325;28;20188;-64
2022/04/13 02:32:31;;;;;;;7.53;4.05;;;8.90;68.90;;;;;;5105258;28;20248;-64
2022/04/13 02:34:59;;;;;;;5.30;3.88;;;8.80;69.60;;;;;;5092461;28;20204;-65
2022/04/13 02:37:26;;;;;;;4.75;3.67;;;8.70;69.10;;;;;;5097215;28;20185;-64
2022/04/13 02:40:01;;;;;;;4.85;3.70;;;8.50;69.60;;;;;;5112715;28;20192;-63
2022/04/13 02:42:33;;;;;;;7.20;3.83;;;8.40;69.70;;;;;;5096413;28;20651;-66
2022/04/13 02:45:24;;;;;;;5.15;3.63;;;8.40;70.40;;;;;;5092188;28;20212;-64
2022/04/13 02:47:54;;;;;;;4.82;4.18;;;8.30;71.00;;;;;;5109748;28;20203;-64
2022/04/13 02:50:21;;;;;;;6.45;3.60;;;8.30;71.80;;;;;;5106343;28;20196;-64
2022/04/13 02:52:48;;;;;;;5.13;3.65;;;8.30;73.30;;;;;;5094796;28;20774;-64
2022/04/13 02:55:16;;;;;;;6.80;4.45;;;8.30;73.20;;;;;;5112502;28;20204;-64
2022/04/13 02:57:43;;;;;;;5.13;4.40;;;8.30;72.80;;;;;;5101914;28;20189;-63
2022/04/13 03:00:14;;;;;;;6.35;4.53;;;8.40;73.10;;;;;;5092020;28;20677;-64
2022/04/13 03:02:44;;;;;;;7.85;4.10;;;8.40;72.90;;;;;;5102691;28;20181;-63
2022/04/13 03:05:12;;;;;;;5.20;4.30;;;8.40;72.10;;;;;;5112248;28;20617;-64
2022/04/13 03:07:39;;;;;;;6.30;4.25;;;8.30;72.60;;;;;;5095654;28;20189;-63
2022/04/13 03:10:07;;;;;;;8.45;5.30;;;8.20;72.40;;;;;;5097606;28;20188;-63
2022/04/13 03:12:35;;;;;;;7.68;5.78;;;8.20;73.10;;;;;;5115885;28;20629;-63
2022/04/13 03:15:05;;;;;;;10.00;5.25;;;8.10;73.10;;;;;;5114231;28;20195;-63
2022/04/13 03:17:33;;;;;;;4.28;3.50;;;8.00;74.20;;;;;;5102075;28;20544;-64
2022/04/13 03:20:04;;;;;;;4.72;3.83;;;8.00;73.90;;;;;;5114831;28;20189;-64
2022/04/13 03:22:31;;;;;;;5.75;4.10;;;8.00;73.80;;;;;;5095361;28;20191;-64
2022/04/13 03:25:18;;;;;;;6.07;4.75;;;8.00;73.80;;;;;;5095104;28;20266;-66
2022/04/13 03:27:46;;;;;;;6.60;4.35;;;8.10;74.30;;;;;;5103885;28;20189;-63
2022/04/13 03:30:16;;;;;;;7.07;4.13;;;8.10;74.50;;;;;;5095179;28;20284;-65
2022/04/13 03:32:43;;;;;;;11.80;10.60;;;8.10;75.10;;;;;;5110264;28;20265;-63
2022/04/13 03:35:13;;;;;;;15.95;8.00;;;8.20;75.30;;;;;;5115355;28;20211;-64
2022/04/13 03:37:41;;;;;;;10.07;7.40;;;8.20;76.20;;;;;;5100567;28;21296;-64
2022/04/13 03:40:10;;;;;;;9.20;6.10;;;8.20;76.10;;;;;;5109827;28;20708;-65
2022/04/13 03:42:39;;;;;;;7.00;5.13;;;8.20;76.50;;;;;;5101350;28;20188;-64
2022/04/13 03:45:08;;;;;;;4.90;4.25;;;8.20;77.00;;;;;;5104992;28;20684;-64
2022/04/13 03:47:35;;;;;;;5.95;4.97;;;8.20;77.20;;;;;;5114587;28;20184;-64
2022/04/13 03:50:03;;;;;;;7.20;4.55;;;8.10;75.40;;;;;;5104728;28;20186;-64
2022/04/13 03:52:37;;;;;;;16.27;6.35;;;8.20;75.10;;;;;;5109502;28;20211;-64
2022/04/13 03:55:29;;;;;;;7.35;5.35;;;8.20;74.80;;;;;;5104978;28;20188;-64
2022/04/13 03:57:57;;;;;;;7.07;5.50;;;8.20;74.80;;;;;;5095353;28;20220;-64
2022/04/13 04:00:25;;;;;;;7.85;5.18;;;8.20;74.80;;;;;;5114888;28;20643;-63
2022/04/13 04:02:53;;;;;;;7.30;5.28;;;8.20;75.20;;;;;;5114007;28;20184;-64
2022/04/13 04:05:20;;;;;;;5.53;4.28;;;8.20;74.70;;;;;;5094723;28;20228;-63
2022/04/13 04:07:54;;;;;;;6.03;4.65;;;8.20;74.80;;;;;;5094426;28;20201;-63
2022/04/13 04:10:24;;;;;;;6.50;5.20;;;8.20;74.70;;;;;;5074313;28;20709;-64
2022/04/13 04:12:52;;;;;;;12.10;5.45;;;8.00;75.00;;;;;;5073580;28;20218;-64
2022/04/13 04:15:19;;;;;;;6.88;4.45;;;7.90;75.20;;;;;;5110305;28;20196;-64
2022/04/13 04:17:50;;;;;;;8.50;4.75;;;7.90;75.40;;;;;;5094304;28;20239;-63
2022/04/13 04:20:17;;;;;;;7.97;4.88;;;7.90;75.70;;;;;;5113196;28;20267;-63
2022/04/13 04:22:44;;;;;;;8.20;5.20;;;7.90;76.00;;;;;;5114506;28;20205;-63
2022/04/13 04:25:13;;;;;;;7.78;5.43;;;7.90;76.00;;;;;;5109998;28;20233;-64
2022/04/13 04:27:40;;;;;;;5.80;4.13;;;7.90;76.20;;;;;;5107927;28;20185;-63
2022/04/13 04:30:09;;;;;;;6.72;4.70;;;7.90;77.50;;;;;;5094109;28;20647;-64
2022/04/13 04:32:36;;;;;;;5.28;3.83;;;7.90;77.50;;;;;;5098815;28;20200;-64
2022/04/13 04:35:06;;;;;;;6.40;4.80;;;7.90;77.30;;;;;;5114626;28;20188;-63
2022/04/13 04:37:34;;;;;;;5.50;3.83;;;7.90;77.20;;;;;;5110361;28;20220;-64
2022/04/13 04:40:01;;;;;;;6.60;4.47;;;8.00;77.20;;;;;;5101713;28;20192;-63
2022/04/13 04:42:32;;;;;;;6.88;4.15;;;7.90;76.70;;;;;;5111462;28;20180;-64
2022/04/13 04:45:00;;;;;;;9.60;4.32;;;7.90;75.70;;;;;;5093754;28;20193;-64
2022/04/13 04:47:27;;;;;;;5.60;4.18;;;7.90;74.50;;;;;;5095530;28;20533;-64
2022/04/13 04:49:54;;;;;;;6.80;4.93;;;7.80;73.90;;;;;;5107384;28;20196;-64
2022/04/13 04:52:22;;;;;;;5.15;3.90;;;7.80;73.50;;;;;;5094014;28;20644;-63
2022/04/13 04:54:49;;;;;;;6.97;4.18;;;7.70;72.60;;;;;;5114309;28;20188;-63
2022/04/13 04:57:17;;;;;;;5.82;4.00;;;7.70;71.90;;;;;;5113924;28;20647;-64
2022/04/13 04:59:51;;;;;;;6.25;4.55;;;7.70;72.00;;;;;;5113753;28;20588;-63
2022/04/13 05:02:19;;;;;;;6.32;3.78;;;7.70;72.50;;;;;;5104327;28;20185;-64
2022/04/13 05:04:46;;;;;;;6.72;4.60;;;7.60;73.40;;;;;;5093524;28;20188;-63
2022/04/13 05:07:14;;;;;;;6.47;3.88;;;7.60;73.90;;;;;;5101316;28;20188;-64
2022/04/13 05:09:41;;;;;;;7.18;4.88;;;7.60;74.50;;;;;;5113801;28;20203;-63
2022/04/13 05:12:09;;;;;;;10.57;5.60;;;7.60;75.20;;;;;;5106352;28;20551;-63
2022/04/13 05:14:36;;;;;;;5.68;4.00;;;7.80;75.50;;;;;;5101846;28;20311;-63
2022/04/13 05:17:05;;;;;;;6.47;3.90;;;7.80;75.40;;;;;;5107403;28;20297;-65
2022/04/13 05:19:33;;;;;;;4.10;3.40;;;7.90;74.50;;;;;;5093423;28;20733;-63
2022/04/13 05:22:01;;;;;;;5.45;3.67;;;7.80;72.90;;;;;;5090098;28;20193;-63
2022/04/13 05:24:28;;;;;;;5.28;3.67;;;7.80;73.20;;;;;;5091198;28;20200;-64
2022/04/13 05:26:57;;;;;;;9.55;4.18;;;7.90;73.70;;;;;;5093154;28;20271;-65
2022/04/13 05:29:25;;;;;;;7.85;4.97;;;7.90;74.30;;;;;;5087434;28;20544;-64
2022/04/13 05:31:52;;;;;;;7.40;5.32;;;8.00;74.60;;;;;;5091770;28;20197;-63
2022/04/13 05:34:21;;;;;;;21.25;7.43;;;8.00;75.30;;;;;;5091093;28;20224;-64
2022/04/13 05:36:48;;;;;;;10.50;6.55;;;8.00;75.50;;;;;;5090890;28;20185;-64
2022/04/13 05:39:16;;;;;;;7.93;6.20;;;8.00;75.50;;;;;;5095199;28;20191;-63
2022/04/13 05:41:43;;;;;;;6.90;5.40;;;8.00;75.80;;;;;;5090967;28;20283;-63
2022/04/13 05:44:10;;;;;;;7.28;4.97;;;8.00;76.40;;;;;;5091182;28;20284;-63
2022/04/13 05:46:37;;;;;;;13.32;4.93;;;8.00;76.40;;;;;;5090571;28;20193;-64
2022/04/13 05:49:05;;;;;;;9.88;5.40;;;8.00;76.90;;;;;;5091435;28;20266;-64
2022/04/13 05:51:34;;;;;;;8.13;5.70;;;8.00;77.30;;;;;;5091306;28;20192;-64
2022/04/13 05:54:01;;;;;;;6.95;6.15;;;8.20;77.70;;;;;;5090456;28;20212;-65
2022/04/13 05:56:29;;;;;;;6.88;5.55;;;8.30;77.40;;;;;;5092673;28;20189;-64
2022/04/13 05:58:56;;;;;;;7.25;5.18;;;8.40;77.10;;;;;;5091194;28;20201;-64
2022/04/13 06:01:23;;;;;;;8.23;4.45;;;8.60;77.10;;;;;;5091953;28;20185;-64
2022/04/13 06:03:51;;;;;;;7.10;5.47;;;8.70;76.70;;;;;;5095209;28;20246;-65
2022/04/13 06:06:21;;;;;;;7.00;5.57;;;8.90;76.70;;;;;;5087146;28;20242;-64
2022/04/13 06:08:50;;;;;;;6.68;4.57;;;9.00;75.70;;;;;;5090676;28;20213;-64
2022/04/13 06:11:17;;;;;;;5.80;4.75;;;9.10;76.00;;;;;;5089338;28;20677;-64
2022/04/13 06:13:44;;;;;;;9.05;4.97;;;9.20;76.20;;;;;;5091161;28;20213;-65
2022/04/13 06:16:11;;;;;;;11.73;4.22;;;9.40;76.50;;;;;;5089971;28;20193;-64
2022/04/13 06:18:39;;;;;;;15.40;5.43;;;9.60;76.40;;;;;;5093140;28;20213;-64
2022/04/13 06:21:06;;;;;;;9.10;4.93;;;9.80;76.40;;;;;;5089598;28;20185;-65
2022/04/13 06:23:33;;;;;;;8.95;5.30;;;10.00;75.60;;;;;;5094146;28;20185;-64
2022/04/13 06:26:01;;;;;;;7.07;4.15;;;10.20;75.70;;;;;;5091286;28;20276;-64
2022/04/13 06:28:30;;;;;;;6.20;4.50;;;10.40;75.60;;;;;;5088028;28;20224;-63
2022/04/13 06:30:58;;;;;;;7.45;4.53;;;10.60;75.30;;;;;;5089797;28;20636;-65
2022/04/13 06:33:25;;;;;;;6.05;4.93;;;10.70;74.90;;;;;;5092451;28;20213;-64
2022/04/13 06:35:52;;;;;;;7.43;4.35;;;10.90;74.60;;;;;;5090631;28;20201;-63
2022/04/13 06:38:19;;;;;;;5.60;4.00;;;11.10;73.80;;;;;;5094123;28;20189;-64
2022/04/13 06:40:46;;;;;;;8.05;4.47;;;11.30;73.50;;;;;;5094568;28;20177;-64
2022/04/13 06:43:14;;;;;;;6.03;5.07;;;11.50;73.30;;;;;;5095087;28;20284;-64
2022/04/13 06:45:41;;;;;;;7.88;4.65;;;11.70;72.90;;;;;;5094439;28;20191;-64
2022/04/13 06:48:09;;;;;;;8.65;5.35;;;11.80;72.10;;;;;;5094353;28;20235;-66
2022/04/13 06:50:36;;;;;;;12.98;5.53;;;12.00;71.80;;;;;;5099530;28;20189;-64
2022/04/13 06:53:03;;;;;;;9.98;5.38;;;12.20;71.30;;;;;;5094400;28;20217;-64
2022/04/13 06:55:30;;;;;;;8.75;5.53;;;12.40;70.90;;;;;;5094017;28;20535;-65
2022/04/13 06:57:57;;;;;;;10.48;4.15;;;12.70;70.70;;;;;;5095864;28;20212;-64
2022/04/13 07:00:26;;;;;;;7.85;4.18;;;12.90;69.90;;;;;;5111196;28;20244;-65
2022/04/13 07:02:57;;;;;;;5.97;4.38;;;13.10;69.50;;;;;;5116684;28;20195;-65
2022/04/13 07:05:24;;;;;;;8.40;4.15;;;13.30;68.90;;;;;;5116523;28;20193;-64
2022/04/13 07:07:51;;;;;;;6.75;4.18;;;13.50;68.30;;;;;;5116395;28;20584;-65
2022/04/13 07:10:18;;;;;;;9.63;6.07;;;13.80;66.60;;;;;;5116657;28;20275;-66
2022/04/13 07:12:45;;;;;;;7.55;4.72;;;13.90;66.00;;;;;;5116512;28;20283;-64
2022/04/13 07:15:12;;;;;;;10.63;4.60;;;14.20;65.20;;;;;;5116112;28;20220;-64
2022/04/13 07:17:40;;;;;;;8.32;3.70;;;14.40;64.90;;;;;;5116308;28;20708;-64
2022/04/13 07:20:08;;;;;;;4.70;3.85;;;14.60;65.00;;;;;;5116500;28;20238;-64
2022/04/13 07:22:43;;;;;;;4.40;3.30;;;14.90;64.70;;;;;;5116413;28;20202;-65
2022/04/13 07:25:10;;;;;;;9.43;3.70;;;15.20;63.70;;;;;;5116039;28;20469;-64
2022/04/13 07:27:37;;;;;;;7.90;3.60;;;15.40;63.20;;;;;;5115950;28;20442;-64
2022/04/13 07:30:05;;;;;;;10.50;3.97;;;15.80;62.70;;;;;;5116167;28;20521;-64
2022/04/13 07:32:32;;;;;;;9.80;3.67;;;16.20;62.70;;;;;;5116233;28;20438;-64
2022/04/13 07:35:01;;;;;;;4.43;2.80;;;16.60;59.90;;;;;;5116160;28;20539;-64
2022/04/13 07:37:28;;;;;;;6.30;3.37;;;17.00;60.30;;;;;;5115980;28;20431;-64
2022/04/13 07:39:55;;;;;;;6.00;2.90;;;17.60;59.40;;;;;;5116082;28;20437;-64
2022/04/13 07:42:21;;;;;;;7.67;2.60;;;18.40;56.90;;;;;;5115965;28;20528;-64
2022/04/13 07:44:49;;;;;;;7.07;3.20;;;19.70;56.10;;;;;;5115576;28;21256;-64
2022/04/13 07:47:16;;;;;;;3.80;3.00;;;21.00;46.70;;;;;;5116097;28;20442;-64
2022/04/13 07:49:43;;;;;;;7.23;2.83;;;22.10;47.00;;;;;;5115878;28;20430;-64
2022/04/13 07:52:11;;;;;;;6.00;2.93;;;23.10;42.30;;;;;;5115365;28;20445;-64
2022/04/13 07:54:38;;;;;;;4.30;3.10;;;23.70;40.60;;;;;;5115696;28;20568;-65
2022/04/13 07:57:05;;;;;;;4.27;3.37;;;24.20;38.90;;;;;;5115516;28;21009;-63
2022/04/13 07:59:32;;;;;;;5.27;3.50;;;25.00;38.10;;;;;;5115727;28;20434;-63
2022/04/13 08:01:59;;;;;;;8.53;4.67;;;25.60;35.10;;;;;;5115369;28;20855;-63
2022/04/13 08:04:26;;;;;;;9.20;3.50;;;26.40;35.40;;;;;;5115628;28;20486;-63
2022/04/13 08:06:53;;;;;;;5.83;2.90;;;27.20;33.00;;;;;;5115264;28;20530;-65
2022/04/13 08:09:21;;;;;;;6.33;2.67;;;28.00;33.10;;;;;;5115322;28;20434;-63
2022/04/13 08:11:52;;;;;;;3.50;1.93;;;28.70;31.40;;;;;;5115107;28;20439;-63
2022/04/13 08:14:19;;;;;;;2.87;1.93;;;29.30;30.40;;;;;;5115515;28;20487;-63
2022/04/13 08:16:46;;;;;;;6.83;2.37;;;29.80;28.20;;;;;;5115076;28;20571;-63
2022/04/13 08:19:13;;;;;;;4.80;2.30;;;30.50;28.00;;;;;;5115000;28;20446;-63
2022/04/13 08:21:39;;;;;;;4.27;2.50;;;31.10;27.70;;;;;;5115152;28;20513;-64
2022/04/13 08:24:07;;;;;;;6.00;2.60;;;31.80;25.10;;;;;;5115248;28;20524;-63
2022/04/13 08:26:35;;;;;;;4.50;2.83;;;32.30;24.60;;;;;;5114683;28;20471;-64
2022/04/13 08:29:02;;;;;;;4.03;2.47;;;32.80;23.50;;;;;;5114989;28;20465;-63
2022/04/13 08:31:29;;;;;;;3.77;2.00;;;33.40;22.70;;;;;;5115086;28;20471;-63
2022/04/13 08:33:56;;;;;;;3.60;1.77;;;33.90;22.40;;;;;;5114681;28;20560;-63
2022/04/13 08:36:22;;;;;;;3.80;2.03;;;34.30;21.30;;;;;;5115016;28;20637;-63
2022/04/13 08:38:49;;;;;;;6.40;2.00;;;34.60;20.90;;;;;;5114590;28;20521;-63
2022/04/13 08:41:20;;;;;;;3.77;2.13;;;34.70;20.70;;;;;;5114921;28;20822;-63
2022/04/13 08:43:59;;;;;;;6.03;2.47;;;34.90;20.60;;;;;;5114845;28;21056;-64
2022/04/13 08:46:27;;;;;;;4.53;2.20;;;35.40;20.90;;;;;;5114705;28;20537;-66
2022/04/13 08:48:56;;;;;;;3.80;2.00;;;35.90;20.60;;;;;;5114648;28;20495;-64
2022/04/13 08:51:25;;;;;;;8.47;3.10;;;36.40;19.80;;;;;;5114195;28;20438;-64
2022/04/13 08:54:02;;;;;;;3.93;2.10;;;37.20;18.60;;;;;;5114471;28;20880;-64
2022/04/13 08:56:35;;;;;;;4.50;2.30;;;37.80;18.90;;;;;;5114157;28;20479;-64
2022/04/13 08:59:11;;;;;;;6.40;2.90;;;38.50;17.90;;;;;;5114200;28;20430;-63
2022/04/13 09:01:42;;;;;;;3.63;2.40;;;39.30;16.90;;;;;;5114113;28;20446;-64
2022/04/13 09:04:11;;;;;;;6.57;2.20;;;39.80;16.30;;;;;;5114275;28;20912;-64
2022/04/13 09:06:40;;;;;;;6.50;2.73;;;40.40;15.90;;;;;;5113979;28;20924;-64
2022/04/13 09:09:15;;;;;;;6.57;2.90;;;41.00;15.40;;;;;;5114017;28;20473;-64
2022/04/13 09:11:45;;;;;;;4.30;2.30;;;41.30;15.40;;;;;;5114225;28;20433;-64
2022/04/13 09:14:14;;;;;;;5.87;2.20;;;41.50;14.70;;;;;;5113480;28;20482;-63
2022/04/13 09:16:44;;;;;;;6.57;1.90;;;41.40;14.40;;;;;;5113188;28;20474;-64
2022/04/13 09:19:11;;;;;;;4.00;1.80;;;41.70;14.90;;;;;;5113750;28;20483;-63
2022/04/13 09:21:39;;;;;;;9.43;2.03;;;42.10;12.80;;;;;;5113719;28;20477;-64
2022/04/13 09:24:09;;;;;;;4.73;1.90;;;42.20;13.50;;;;;;5113722;28;20438;-64
2022/04/13 09:26:37;;;;;;;7.50;2.40;;;42.30;13.40;;;;;;5113752;28;20466;-64
2022/04/13 09:29:04;;;;;;;5.13;2.30;;;42.30;12.90;;;;;;5113771;28;20929;-63
2022/04/13 09:31:32;;;;;;;2.80;1.80;;;42.50;13.40;;;;;;5113684;28;20470;-63
2022/04/13 09:33:59;;;;;;;4.17;1.87;;;43.40;13.70;;;;;;5113516;28;20923;-64
2022/04/13 09:36:26;;;;;;;3.23;1.53;;;44.40;12.70;;;;;;5113461;28;20442;-64
2022/04/13 09:38:54;;;;;;;4.67;1.70;;;45.00;12.00;;;;;;5113435;28;20481;-64
2022/04/13 09:41:33;;;;;;;4.13;2.10;;;45.60;12.00;;;;;;5113487;28;20965;-65
2022/04/13 09:44:00;;;;;;;3.37;1.60;;;46.10;10.90;;;;;;5113398;28;20505;-64
2022/04/13 09:46:29;;;;;;;7.30;1.73;;;46.50;11.20;;;;;;5113298;28;20470;-64
2022/04/13 09:49:11;;;;;;;2.90;1.80;;;46.50;10.70;;;;;;5113214;28;20423;-64
2022/04/13 09:51:38;;;;;;;2.77;1.67;;;46.30;10.70;;;;;;5113096;28;20474;-64
2022/04/13 09:54:10;;;;;;;6.23;1.80;;;45.90;9.90;;;;;;5113128;28;20946;-64
2022/04/13 09:56:38;;;;;;;3.77;2.00;;;45.20;10.20;;;;;;5113333;28;20438;-64
2022/04/13 09:59:06;;;;;;;3.50;2.10;;;44.70;11.00;;;;;;5113305;28;20525;-64
2022/04/13 10:01:34;;;;;;;4.90;1.87;;;44.40;11.30;;;;;;5113109;28;20848;-65
2022/04/13 10:04:03;;;;;;;4.10;1.90;;;44.10;11.70;;;;;;5112991;28;20463;-65
2022/04/13 10:06:33;;;;;;;3.87;1.60;;;44.00;11.70;;;;;;5112928;28;20445;-64
2022/04/13 10:09:01;;;;;;;2.40;1.70;;;43.70;11.60;;;;;;5113244;28;20438;-64
2022/04/13 10:11:28;;;;;;;3.37;1.97;;;43.40;11.00;;;;;;5112932;28;20485;-65
2022/04/13 10:13:55;;;;;;;2.23;1.40;;;42.70;11.70;;;;;;5117159;28;20562;-64
2022/04/13 10:16:22;;;;;;;2.80;1.60;;;42.40;11.20;;;;;;5116743;28;20541;-66
2022/04/13 10:18:54;;;;;;;4.50;1.87;;;41.90;12.10;;;;;;5117349;28;20434;-64
2022/04/13 10:21:43;;;;;;;2.40;1.27;;;41.60;11.80;;;;;;5116967;28;20434;-64
2022/04/13 10:24:11;;;;;;;4.60;1.67;;;41.20;12.40;;;;;;5117140;28;20521;-64
2022/04/13 10:26:39;;;;;;;4.53;2.10;;;40.90;12.90;;;;;;5116469;28;20453;-63
2022/04/13 10:29:16;;;;;;;6.20;2.40;;;40.80;12.50;;;;;;5117056;28;20498;-64
2022/04/13 10:32:05;;;;;;;3.67;1.83;;;40.60;12.80;;;;;;5116767;28;20462;-64
2022/04/13 10:34:34;;;;;;;3.50;1.90;;;40.40;12.20;;;;;;5107611;27;20485;-63
2022/04/13 10:37:02;;;;;;;2.80;1.83;;;39.90;12.80;;;;;;5116910;28;20521;-64
2022/04/13 10:39:30;;;;;;;4.57;1.60;;;39.40;12.80;;;;;;5116708;28;20928;-64
2022/04/13 10:41:57;;;;;;;2.87;1.30;;;38.70;12.50;;;;;;5116661;28;20483;-63
2022/04/13 10:44:31;;;;;;;3.40;1.50;;;38.40;12.90;;;;;;5116937;28;20896;-64
2022/04/13 10:47:02;;;;;;;3.33;1.27;;;38.10;13.30;;;;;;5116321;28;20434;-64
2022/04/13 10:49:35;;;;;;;2.70;1.40;;;37.80;13.60;;;;;;5116398;27;20936;-64
2022/04/13 10:52:10;;;;;;;3.50;1.43;;;37.60;14.30;;;;;;5116526;28;20780;-64
2022/04/13 10:54:38;;;;;;;3.40;1.80;;;37.40;14.70;;;;;;5116416;28;20835;-64
2022/04/13 10:57:07;;;;;;;5.27;2.40;;;37.40;14.90;;;;;;5116315;28;20787;-64
2022/04/13 10:59:45;;;;;;;4.10;1.50;;;37.30;14.90;;;;;;5100666;28;20439;-63
2022/04/13 11:02:28;;;;;;;2.93;1.60;;;37.20;15.10;;;;;;5104629;28;20512;-63
2022/04/13 11:04:56;;;;;;;4.30;2.00;;;37.10;14.80;;;;;;5105396;28;20469;-64
2022/04/13 11:07:25;;;;;;;2.00;1.10;;;37.00;15.90;;;;;;5101404;28;20478;-64
2022/04/13 11:09:56;;;;;;;4.27;1.90;;;37.00;15.60;;;;;;5106590;28;20442;-65
2022/04/13 11:12:25;;;;;;;3.50;1.70;;;36.90;15.70;;;;;;5106620;28;20780;-64
2022/04/13 11:14:53;;;;;;;2.50;1.80;;;36.90;15.80;;;;;;5101231;28;20431;-64
2022/04/13 11:17:25;;;;;;;6.87;2.20;;;36.90;15.70;;;;;;5108425;28;20561;-63
2022/04/13 11:19:52;;;;;;;4.30;1.80;;;36.70;15.40;;;;;;5103134;28;20438;-64
2022/04/13 11:22:20;;;;;;;3.90;1.70;;;36.50;15.70;;;;;;5104723;28;20484;-63
2022/04/13 11:24:58;;;;;;;4.63;1.80;;;36.50;15.70;;;;;;5108749;28;20502;-63
2022/04/13 11:27:26;;;;;;;3.27;2.30;;;36.50;16.90;;;;;;5098216;28;20439;-66
2022/04/13 11:30:00;;;;;;;5.27;1.73;;;36.10;16.60;;;;;;5109808;28;20470;-69
2022/04/13 11:32:32;;;;;;;4.10;1.73;;;35.80;16.40;;;;;;5102510;28;20476;-64
2022/04/13 11:35:00;;;;;;;4.87;1.70;;;35.50;16.60;;;;;;5102296;28;20479;-64
2022/04/13 11:37:42;;;;;;;2.77;1.50;;;35.00;17.40;;;;;;5100012;28;20525;-64
2022/04/13 11:40:12;;;;;;;3.30;1.67;;;34.80;17.40;;;;;;5101972;28;20766;-63
2022/04/13 11:42:53;;;;;;;4.27;1.83;;;34.60;17.80;;;;;;5103644;28;20434;-63
2022/04/13 11:45:27;;;;;;;4.10;2.20;;;34.30;18.00;;;;;;5105468;28;20836;-63
2022/04/13 11:48:04;;;;;;;4.73;1.90;;;33.90;19.20;;;;;;5090564;28;20773;-63
2022/04/13 11:50:36;;;;;;;4.83;2.00;;;33.60;19.20;;;;;;5093955;28;20514;-64
2022/04/13 11:53:06;;;;;;;5.80;1.50;;;33.40;19.20;;;;;;5094677;28;20443;-63
2022/04/13 11:55:42;;;;;;;8.40;1.43;;;33.30;19.60;;;;;;5093803;28;20504;-63
2022/04/13 11:58:21;;;;;;;2.80;1.60;;;33.10;18.70;;;;;;5095100;28;20526;-63
2022/04/13 12:00:54;;;;;;;4.50;1.90;;;33.00;20.10;;;;;;5095896;28;20447;-63
2022/04/13 12:03:23;;;;;;;4.80;1.60;;;32.90;20.00;;;;;;5096476;28;20447;-65
2022/04/13 12:05:52;;;;;;;3.27;1.23;;;32.80;20.10;;;;;;5096192;28;20517;-63
2022/04/13 12:08:29;;;;;;;4.50;1.20;;;32.40;19.80;;;;;;5097560;28;20620;-63
2022/04/13 12:11:03;;;;;;;3.77;1.67;;;32.20;19.20;;;;;;5097418;28;20451;-63
2022/04/13 12:13:33;;;;;;;2.00;1.20;;;32.00;20.10;;;;;;5094845;28;20585;-63
2022/04/13 12:16:01;;;;;;;2.20;1.43;;;32.00;19.60;;;;;;5096474;28;20913;-63
2022/04/13 12:18:29;;;;;;;4.20;1.73;;;31.90;19.50;;;;;;5096550;28;20533;-63
2022/04/13 12:21:09;;;;;;;2.33;0.93;;;31.70;18.70;;;;;;5097487;28;20435;-63
2022/04/13 12:23:37;;;;;;;2.87;1.47;;;31.40;16.10;;;;;;5094143;28;20586;-63
2022/04/13 12:26:09;;;;;;;3.53;1.40;;;31.10;16.80;;;;;;5095748;28;20521;-63
2022/04/13 12:28:36;;;;;;;2.67;1.03;;;30.90;16.60;;;;;;5095609;28;20447;-63
2022/04/13 12:31:06;;;;;;;3.10;1.10;;;30.80;16.40;;;;;;5101017;28;20471;-62
2022/04/13 12:33:34;;;;;;;4.20;1.33;;;30.60;16.90;;;;;;5095739;28;20450;-63
2022/04/13 12:36:02;;;;;;;5.13;1.50;;;30.40;17.60;;;;;;5099907;27;20481;-63
2022/04/13 12:38:31;;;;;;;3.60;1.40;;;30.40;17.20;;;;;;5103014;28;20920;-63
2022/04/13 12:41:10;;;;;;;2.73;1.37;;;30.30;17.90;;;;;;5099170;28;20517;-64
2022/04/13 12:43:39;;;;;;;2.83;1.37;;;30.20;19.30;;;;;;5096864;28;20534;-63
2022/04/13 12:46:17;;;;;;;2.53;1.30;;;30.30;19.60;;;;;;5101794;28;20545;-62
2022/04/13 12:48:45;;;;;;;3.23;1.10;;;30.30;18.30;;;;;;5103864;28;20453;-63
2022/04/13 12:51:13;;;;;;;2.33;1.40;;;30.20;20.30;;;;;;5101295;28;20445;-62
2022/04/13 12:53:47;;;;;;;2.87;1.37;;;30.00;20.40;;;;;;5104984;28;20853;-63
2022/04/13 12:56:20;;;;;;;5.53;1.50;;;29.90;19.20;;;;;;5104134;28;20442;-63
2022/04/13 12:58:47;;;;;;;6.33;1.50;;;29.70;18.80;;;;;;5106170;28;20533;-63
2022/04/13 13:01:29;;;;;;;3.97;1.20;;;29.70;19.50;;;;;;5106758;28;20482;-62